Republic Airport
KFRG : now visible

Airfield :











YOU CAN JOIN US ON...

 
LOGIN :

Register | Disclaimer

   EN    FR    IT 

 









Legend :    VFR   Marginal VFR   IFR   Intensive IFR   Very Intensive IFR
Visi :
Ceiling :
>= 8 km
>= 3000ft
5 to 8 km
1000 to 3000 ft
1500m to 5 km
500 to 1000 ft
800 to 1500m
200 to 500 ft
< 800m
< 200 ft
Symbols :   Thunderstorms  Fog  Heavy snow  Heavy precipitations  Wind > 20 kt






- Airport Elevation : 82 ft


KFRG - Republic

CURRENT METAR :
  • 031953Z AUTO 17009KT 10SM CLR 28/14 A2999 RMK AO2 SLP155 T02780144

EXPIRED METARs :
  • 031928Z 17009KT 10SM FEW070 28/14 A2999 RMK AO2 T02780144
  • 031853Z 03004KT 10SM CLR 29/13 A3000 RMK AO2 SLP158 T02940133
  • 030453Z AUTO 00000KT 10SM BKN046 BKN060 24/21 A2994 RMK AO2 SLP138 T02390206 403000228
  • 031753Z 36006KT 10SM CLR 28/12 A3001 RMK AO2 SLP163 T02830122 10289 20233 56013

TAF N/A
KZNY FIR / North America



MET'MAP, your aeronautical weather chart ! - Copyright ORBIFLY December 2007 - Disclaimer

ORBIFLY MET'MAP TEAM :

Programming & Development : Alexandra Zaïnal
Original concept : Baudouin d'Aumeries
Technical & hardware support : Manuel Goepfert
Assistance : Marc-Olivier Méhu




SOURCES & CREDITS :

   NOAA       Earth
Advisory